Time;durP1;ratioP1;P1;durP2;ratioP2;P2;SDS_P1;SDS_P2;PMS_P1;PMS_P2;Temp;Humidity;BMP_temperature;BMP_pressure;BME280_temperature;BME280_humidity;BME280_pressure;Samples;Min_cycle;Max_cycle;Signal;HPM_P1;HPM_P2
2022/12/18 00:01:28;;;;;;;42.92;16.02;;;-3.50;99.90;;;;;;4841347;29;20061;-80
2022/12/18 00:03:55;;;;;;;35.63;14.93;;;-3.50;99.90;;;;;;4838915;29;20059;-81
2022/12/18 00:06:24;;;;;;;35.13;16.33;;;-3.40;99.90;;;;;;4835531;29;20068;-79
2022/12/18 00:08:51;;;;;;;34.03;15.80;;;-3.40;99.90;;;;;;4831777;29;20421;-81
2022/12/18 00:11:20;;;;;;;39.22;16.17;;;-3.50;99.90;;;;;;4830882;29;20081;-79
2022/12/18 00:13:47;;;;;;;44.37;15.67;;;-3.50;99.90;;;;;;4840654;29;20054;-80
2022/12/18 00:16:20;;;;;;;34.13;15.95;;;-3.60;99.90;;;;;;4846244;29;20065;-80
2022/12/18 00:18:48;;;;;;;33.42;14.68;;;-3.60;99.90;;;;;;4829866;29;20062;-80
2022/12/18 00:21:15;;;;;;;39.80;16.35;;;-3.60;99.90;;;;;;4828662;29;20054;-81
2022/12/18 00:23:44;;;;;;;47.08;17.27;;;-3.50;99.90;;;;;;4842652;29;20081;-80
2022/12/18 00:26:19;;;;;;;50.17;17.70;;;-3.50;99.90;;;;;;4843130;29;20062;-80
2022/12/18 00:28:46;;;;;;;44.70;16.92;;;-3.50;99.90;;;;;;4840541;29;20054;-80
2022/12/18 00:31:16;;;;;;;54.63;19.33;;;-3.50;99.90;;;;;;4830023;29;20054;-79
2022/12/18 00:33:43;;;;;;;;;;;-3.50;99.90;;;;;;4829515;29;20118;-80
2022/12/18 00:36:11;;;;;;;43.90;17.80;;;-3.60;99.90;;;;;;4839899;29;19955;-80
2022/12/18 00:38:38;;;;;;;53.30;19.80;;;-3.60;99.90;;;;;;4828971;29;20706;-80
2022/12/18 00:41:07;;;;;;;77.65;18.48;;;-3.60;99.90;;;;;;4836226;29;20069;-80
2022/12/18 00:43:34;;;;;;;54.08;17.25;;;-3.70;99.90;;;;;;4831361;29;20064;-79
2022/12/18 00:46:01;;;;;;;54.78;17.65;;;-3.80;99.90;;;;;;4838651;29;20432;-80
2022/12/18 00:48:28;;;;;;;60.53;17.45;;;-3.90;99.90;;;;;;4835577;29;20053;-80
2022/12/18 00:50:54;;;;;;;63.55;18.00;;;-4.00;99.90;;;;;;4839126;29;20066;-79
2022/12/18 00:53:21;;;;;;;67.47;17.02;;;-4.00;99.90;;;;;;4833287;29;20070;-81
2022/12/18 00:55:48;;;;;;;60.72;17.00;;;-4.10;99.90;;;;;;4837339;29;20061;-79
2022/12/18 00:58:16;;;;;;;69.70;16.52;;;-4.20;99.90;;;;;;4849380;29;20058;-79
2022/12/18 01:00:43;;;;;;;43.28;17.02;;;-4.20;99.90;;;;;;4846049;29;20058;-81
2022/12/18 01:03:13;;;;;;;48.05;15.80;;;-4.10;99.90;;;;;;4840830;29;20062;-80
2022/12/18 01:05:41;;;;;;;64.88;14.35;;;-4.10;99.90;;;;;;4837815;29;20110;-79
2022/12/18 01:08:08;;;;;;;49.38;14.45;;;-4.40;99.90;;;;;;4836601;29;20054;-80
2022/12/18 01:10:35;;;;;;;44.08;16.48;;;-4.40;99.90;;;;;;4835808;29;20058;-80
2022/12/18 01:13:01;;;;;;;53.95;15.68;;;-4.30;99.90;;;;;;4833063;29;20051;-80
2022/12/18 01:15:28;;;;;;;42.28;16.45;;;-4.40;99.90;;;;;;4830753;29;20061;-80
2022/12/18 01:17:55;;;;;;;39.05;14.57;;;-4.40;99.90;;;;;;4839057;29;20050;-78
2022/12/18 01:20:21;;;;;;;40.33;15.32;;;-4.40;99.90;;;;;;4841449;29;20053;-79
2022/12/18 01:22:48;;;;;;;50.58;13.48;;;-4.40;99.90;;;;;;4843809;29;20050;-80
2022/12/18 01:25:15;;;;;;;79.40;13.25;;;-4.50;99.90;;;;;;4839348;29;20140;-79
2022/12/18 01:27:42;;;;;;;34.03;12.32;;;-4.50;99.90;;;;;;4837749;29;20061;-79
2022/12/18 01:30:09;;;;;;;40.17;13.30;;;-4.60;99.90;;;;;;4834818;29;20065;-80
2022/12/18 01:32:35;;;;;;;42.33;13.77;;;-4.60;99.90;;;;;;4842177;29;20474;-79
2022/12/18 01:35:03;;;;;;;47.10;14.05;;;-4.60;99.90;;;;;;4830960;29;20046;-79
2022/12/18 01:37:29;;;;;;;39.28;14.77;;;-4.60;99.90;;;;;;4827718;29;20057;-80
2022/12/18 01:39:56;;;;;;;36.47;14.70;;;-4.60;99.90;;;;;;4827726;29;20060;-80
2022/12/18 01:42:23;;;;;;;35.25;13.73;;;-4.50;99.90;;;;;;4828721;29;20061;-80
2022/12/18 01:45:02;;;;;;;34.75;14.82;;;-4.60;99.90;;;;;;4835133;29;20081;-80
2022/12/18 01:47:46;;;;;;;28.40;12.63;;;-4.70;99.90;;;;;;4835150;29;20064;-79
2022/12/18 01:50:17;;;;;;;33.17;13.52;;;-4.80;99.90;;;;;;4841618;29;20054;-79
2022/12/18 01:52:48;;;;;;;35.03;13.70;;;-4.80;99.90;;;;;;4832585;29;20049;-78
2022/12/18 01:55:18;;;;;;;36.90;14.65;;;-4.80;99.90;;;;;;4840586;29;20414;-80
2022/12/18 01:57:46;;;;;;;37.13;15.52;;;-4.80;99.90;;;;;;4844236;29;20046;-81
2022/12/18 02:00:16;;;;;;;30.13;13.60;;;-4.70;99.90;;;;;;4841545;29;20058;-78
2022/12/18 02:02:46;;;;;;;28.85;13.40;;;-4.70;99.90;;;;;;4829083;29;20077;-80
2022/12/18 02:05:17;;;;;;;33.15;13.10;;;-4.70;99.90;;;;;;4832246;29;20062;-80
2022/12/18 02:07:55;;;;;;;35.45;13.07;;;-4.60;99.90;;;;;;4834451;29;20073;-80
2022/12/18 02:10:33;;;;;;;26.60;12.00;;;-4.60;99.90;;;;;;4836202;29;20057;-80
2022/12/18 02:13:32;;;;;;;37.30;12.63;;;-4.50;99.90;;;;;;4843856;29;20137;-80
2022/12/18 02:16:10;;;;;;;34.55;13.63;;;-4.40;99.90;;;;;;4841000;29;20070;-80
2022/12/18 02:18:41;;;;;;;31.52;13.38;;;-4.40;99.90;;;;;;4847225;29;20060;-80
2022/12/18 02:21:27;;;;;;;53.72;14.02;;;-4.30;99.90;;;;;;4832533;29;20068;-79
2022/12/18 02:24:04;;;;;;;35.75;14.43;;;-4.30;99.90;;;;;;4830257;29;20058;-80
2022/12/18 02:26:45;;;;;;;27.27;12.43;;;-4.30;99.90;;;;;;4831197;29;20424;-80
2022/12/18 02:29:20;;;;;;;29.95;13.40;;;-4.30;99.90;;;;;;4843223;29;20058;-80
2022/12/18 02:31:57;;;;;;;58.72;14.75;;;-4.30;99.90;;;;;;4839462;29;20054;-80
2022/12/18 02:34:28;;;;;;;73.80;15.32;;;-4.40;99.90;;;;;;4842005;29;20050;-80
2022/12/18 02:36:58;;;;;;;42.03;15.48;;;-4.50;99.90;;;;;;4832961;29;20450;-80
2022/12/18 02:39:27;;;;;;;30.08;12.57;;;-4.50;99.90;;;;;;4829614;29;20062;-80
2022/12/18 02:41:53;;;;;;;58.00;15.27;;;-4.50;99.90;;;;;;4842615;29;20058;-80
2022/12/18 02:44:20;;;;;;;43.25;14.85;;;-4.50;99.90;;;;;;4841865;29;20062;-80
2022/12/18 02:46:51;;;;;;;41.85;14.80;;;-4.40;99.90;;;;;;4842361;29;20085;-80
2022/12/18 02:49:24;;;;;;;41.00;14.88;;;-4.40;99.90;;;;;;4843099;29;20054;-80
2022/12/18 02:51:56;;;;;;;43.33;15.48;;;-4.40;99.90;;;;;;4841482;29;20050;-80
2022/12/18 02:54:51;;;;;;;51.08;16.27;;;-4.60;99.90;;;;;;4839091;29;20069;-80
2022/12/18 02:57:24;;;;;;;43.58;15.40;;;-4.60;99.90;;;;;;4837131;29;20058;-80
2022/12/18 03:00:03;;;;;;;44.38;14.82;;;-4.60;99.90;;;;;;4835084;29;20065;-80
2022/12/18 03:02:43;;;;;;;42.70;14.98;;;-4.60;99.90;;;;;;4831286;29;20068;-80
2022/12/18 03:05:19;;;;;;;42.67;15.13;;;-4.60;99.90;;;;;;4843090;29;20508;-79
2022/12/18 03:08:02;;;;;;;34.05;13.05;;;-4.70;99.90;;;;;;4831248;29;20065;-80
2022/12/18 03:10:33;;;;;;;32.88;13.98;;;-4.60;99.90;;;;;;4836021;29;20058;-80
2022/12/18 03:13:09;;;;;;;29.42;13.35;;;-4.50;99.90;;;;;;4838485;29;20072;-79
2022/12/18 03:15:41;;;;;;;39.33;14.40;;;-4.50;99.90;;;;;;4840561;29;20058;-80
2022/12/18 03:18:14;;;;;;;25.80;12.52;;;-4.40;99.90;;;;;;4838464;29;20129;-78
2022/12/18 03:20:44;;;;;;;32.33;13.15;;;-4.40;99.90;;;;;;4840259;29;20057;-79
2022/12/18 03:23:16;;;;;;;36.15;14.77;;;-4.30;99.90;;;;;;4839371;29;20058;-79
2022/12/18 03:25:45;;;;;;;35.75;14.23;;;-4.20;99.90;;;;;;4837412;29;20050;-79
2022/12/18 03:28:17;;;;;;;40.55;14.93;;;-4.20;99.90;;;;;;4840570;29;20057;-79
2022/12/18 03:30:46;;;;;;;25.80;11.95;;;-4.30;99.90;;;;;;4843087;29;20451;-79
2022/12/18 03:33:27;;;;;;;28.35;12.52;;;-4.30;99.90;;;;;;4841297;29;20072;-78
2022/12/18 03:35:54;;;;;;;29.90;13.85;;;-4.30;99.90;;;;;;4839447;29;20050;-81
2022/12/18 03:38:21;;;;;;;31.23;12.68;;;-4.30;99.90;;;;;;4844907;29;20406;-79
2022/12/18 03:40:59;;;;;;;30.33;12.88;;;-4.30;99.90;;;;;;4839150;29;20060;-82
2022/12/18 03:43:36;;;;;;;29.45;12.13;;;-4.30;99.90;;;;;;4832013;29;20065;-79
2022/12/18 03:46:10;;;;;;;29.90;13.90;;;-4.30;99.90;;;;;;4831475;29;20055;-79
2022/12/18 03:48:56;;;;;;;35.40;14.35;;;-4.30;99.90;;;;;;4845133;29;20141;-80
2022/12/18 03:51:36;;;;;;;37.85;15.18;;;-4.30;99.90;;;;;;4834404;29;20050;-80
2022/12/18 03:54:05;;;;;;;32.15;14.27;;;-4.20;99.90;;;;;;4846427;29;20053;-80
2022/12/18 03:56:39;;;;;;;29.27;12.55;;;-4.20;99.90;;;;;;4842234;29;20046;-79
2022/12/18 03:59:07;;;;;;;38.35;14.35;;;-4.10;99.90;;;;;;4837245;29;20058;-80
2022/12/18 04:01:40;;;;;;;31.25;13.63;;;-4.10;99.90;;;;;;4839353;29;20054;-80
2022/12/18 04:04:10;;;;;;;29.67;12.05;;;-4.10;99.90;;;;;;4848202;29;20058;-80
2022/12/18 04:06:37;;;;;;;31.50;12.82;;;-4.00;99.90;;;;;;4838426;29;20064;-79
2022/12/18 04:09:05;;;;;;;37.88;14.35;;;-4.10;99.90;;;;;;4841526;29;20110;-80
2022/12/18 04:11:31;;;;;;;33.85;14.55;;;-4.10;99.90;;;;;;4845926;29;20563;-80
2022/12/18 04:13:58;;;;;;;33.35;15.02;;;-4.10;99.90;;;;;;4842351;29;20061;-79
2022/12/18 04:16:29;;;;;;;32.53;13.32;;;-4.10;99.90;;;;;;4840284;29;20141;-80
2022/12/18 04:18:55;;;;;;;35.58;13.38;;;-4.10;99.90;;;;;;4843798;29;20065;-80
2022/12/18 04:21:22;;;;;;;34.40;13.18;;;-4.10;99.90;;;;;;4836040;29;20054;-80
2022/12/18 04:23:49;;;;;;;30.00;12.80;;;-4.10;99.90;;;;;;4834840;29;20051;-80
2022/12/18 04:26:16;;;;;;;37.42;14.43;;;-4.10;99.90;;;;;;4833982;29;20062;-80
2022/12/18 04:28:43;;;;;;;38.33;12.98;;;-4.10;99.90;;;;;;4833555;29;20051;-80
2022/12/18 04:31:09;;;;;;;37.03;13.70;;;-4.10;99.90;;;;;;4845211;29;20531;-79
2022/12/18 04:33:36;;;;;;;31.88;12.38;;;-4.10;99.90;;;;;;4844455;29;20050;-80
2022/12/18 04:36:04;;;;;;;27.95;12.82;;;-4.20;99.90;;;;;;4842315;29;20108;-78
2022/12/18 04:38:32;;;;;;;28.13;12.70;;;-4.20;99.90;;;;;;4844136;29;20054;-80
2022/12/18 04:40:58;;;;;;;30.50;12.85;;;-4.30;99.90;;;;;;4837455;29;20054;-80
2022/12/18 04:43:25;;;;;;;26.02;11.57;;;-4.30;99.90;;;;;;4835711;29;20058;-80
2022/12/18 04:45:52;;;;;;;23.60;11.27;;;-4.30;99.90;;;;;;4829176;29;20050;-80
2022/12/18 04:48:20;;;;;;;23.33;10.48;;;-4.30;99.90;;;;;;4829128;29;20501;-78
2022/12/18 04:50:47;;;;;;;27.10;11.82;;;-4.20;99.90;;;;;;4841044;29;20054;-80
2022/12/18 04:53:14;;;;;;;25.25;11.13;;;-4.30;99.90;;;;;;4845205;29;20054;-80
2022/12/18 04:55:41;;;;;;;27.52;11.77;;;-4.30;99.90;;;;;;4843231;29;20053;-80
2022/12/18 04:58:07;;;;;;;35.60;13.10;;;-4.20;99.90;;;;;;4841398;29;20046;-81
2022/12/18 05:00:35;;;;;;;25.38;10.88;;;-4.30;99.90;;;;;;4840963;29;20508;-80
2022/12/18 05:03:02;;;;;;;35.67;12.85;;;-4.30;99.90;;;;;;4843715;29;20061;-80
2022/12/18 05:05:29;;;;;;;29.02;12.48;;;-4.30;99.90;;;;;;4829327;29;20062;-81
2022/12/18 05:07:56;;;;;;;35.05;12.25;;;-4.20;99.90;;;;;;4829427;29;20099;-81
2022/12/18 05:10:22;;;;;;;40.13;14.38;;;-4.20;99.90;;;;;;4829240;29;20050;-81
2022/12/18 05:12:58;;;;;;;31.27;13.00;;;-4.20;99.90;;;;;;4838646;29;20440;-79
2022/12/18 05:15:28;;;;;;;30.80;13.02;;;-4.20;99.90;;;;;;4844272;29;20049;-81
2022/12/18 05:17:56;;;;;;;34.67;13.15;;;-4.20;99.90;;;;;;4842250;29;20061;-81
2022/12/18 05:20:24;;;;;;;33.65;13.55;;;-4.30;99.90;;;;;;4839450;29;20058;-80
2022/12/18 05:22:51;;;;;;;36.50;12.73;;;-4.30;99.90;;;;;;4837889;29;20065;-80
2022/12/18 05:25:19;;;;;;;39.50;14.07;;;-4.30;99.90;;;;;;4835468;29;20062;-81
2022/12/18 05:27:46;;;;;;;35.08;13.60;;;-4.30;99.90;;;;;;4843102;29;20421;-79
2022/12/18 05:30:13;;;;;;;34.78;14.10;;;-4.30;99.90;;;;;;4831632;29;20421;-80
2022/12/18 05:32:41;;;;;;;33.58;13.90;;;-4.20;99.90;;;;;;4841843;29;20412;-80
2022/12/18 05:35:10;;;;;;;36.60;13.93;;;-4.20;99.90;;;;;;4828755;29;20046;-80
2022/12/18 05:37:37;;;;;;;33.20;12.73;;;-4.30;99.90;;;;;;4828600;29;20566;-82
2022/12/18 05:40:09;;;;;;;31.00;12.40;;;-4.30;99.90;;;;;;4833962;29;20185;-81
2022/12/18 05:42:36;;;;;;;39.97;14.43;;;-4.30;99.90;;;;;;4836378;29;20058;-81
2022/12/18 05:45:04;;;;;;;36.38;12.80;;;-4.30;99.90;;;;;;4837258;29;20054;-81
2022/12/18 05:47:30;;;;;;;37.03;13.20;;;-4.40;99.90;;;;;;4840758;29;20058;-81
2022/12/18 05:49:57;;;;;;;36.92;14.60;;;-4.30;99.90;;;;;;4828946;29;20068;-81
2022/12/18 05:52:24;;;;;;;31.67;13.98;;;-4.30;99.90;;;;;;4828321;29;20047;-83
2022/12/18 05:54:51;;;;;;;30.95;13.02;;;-4.30;99.90;;;;;;4832383;29;20145;-81
2022/12/18 05:57:17;;;;;;;28.45;12.68;;;-4.40;99.90;;;;;;4845467;29;20054;-81
2022/12/18 05:59:44;;;;;;;38.20;14.02;;;-4.40;99.90;;;;;;4842690;29;20058;-81
2022/12/18 06:02:11;;;;;;;33.50;12.45;;;-4.40;99.90;;;;;;4843662;29;20069;-81
2022/12/18 06:04:38;;;;;;;38.53;14.07;;;-4.40;99.90;;;;;;4839277;29;20061;-81
2022/12/18 06:07:04;;;;;;;36.05;13.32;;;-4.40;99.90;;;;;;4836230;29;20058;-80
2022/12/18 06:09:32;;;;;;;35.90;13.48;;;-4.40;99.90;;;;;;4834432;29;20050;-80
2022/12/18 06:11:59;;;;;;;32.80;12.55;;;-4.50;99.90;;;;;;4832939;29;20051;-81
2022/12/18 06:14:25;;;;;;;30.90;12.23;;;-4.40;99.90;;;;;;4833706;29;20050;-80
2022/12/18 06:16:52;;;;;;;33.72;13.68;;;-4.50;99.90;;;;;;4838160;29;20058;-80
2022/12/18 06:19:19;;;;;;;37.92;13.85;;;-4.50;99.90;;;;;;4846375;29;20061;-80
2022/12/18 06:21:46;;;;;;;33.35;12.85;;;-4.50;99.90;;;;;;4843195;29;20061;-80
2022/12/18 06:24:13;;;;;;;34.85;13.00;;;-4.50;99.90;;;;;;4844167;29;20092;-81
2022/12/18 06:26:40;;;;;;;32.13;12.75;;;-4.50;99.90;;;;;;4840913;29;20046;-81
2022/12/18 06:29:06;;;;;;;33.35;13.50;;;-4.50;99.90;;;;;;4839495;29;20405;-81
2022/12/18 06:31:33;;;;;;;29.42;12.10;;;-4.60;99.90;;;;;;4845797;29;20420;-79
2022/12/18 06:34:03;;;;;;;32.13;12.77;;;-4.60;99.90;;;;;;4836943;29;20050;-77
2022/12/18 06:36:30;;;;;;;;;;;-4.60;99.90;;;;;;4837435;29;20581;-79
2022/12/18 06:38:57;;;;;;;23.92;10.40;;;-4.60;99.90;;;;;;4845961;29;19932;-79
2022/12/18 06:41:24;;;;;;;30.58;12.23;;;-4.70;99.90;;;;;;4850055;29;20050;-79
2022/12/18 06:43:50;;;;;;;28.67;11.40;;;-4.60;99.90;;;;;;4847824;29;20054;-79
2022/12/18 06:46:23;;;;;;;26.05;11.05;;;-4.60;99.90;;;;;;4848022;29;20128;-78
2022/12/18 06:48:50;;;;;;;26.02;11.60;;;-4.60;99.90;;;;;;4856041;29;20053;-79
2022/12/18 06:51:19;;;;;;;32.10;13.02;;;-4.60;99.90;;;;;;4842307;29;20409;-82
2022/12/18 06:53:46;;;;;;;24.23;11.53;;;-4.60;99.90;;;;;;4851797;29;20051;-80
2022/12/18 06:56:13;;;;;;;29.88;11.32;;;-4.50;99.90;;;;;;4840016;29;20070;-81
2022/12/18 06:58:40;;;;;;;30.58;12.63;;;-4.50;99.90;;;;;;4837261;29;20050;-78
2022/12/18 07:01:10;;;;;;;33.30;13.45;;;-4.50;99.90;;;;;;4843782;29;20078;-79
2022/12/18 07:03:38;;;;;;;31.65;12.77;;;-4.50;99.90;;;;;;4839270;29;20051;-79
2022/12/18 07:06:06;;;;;;;38.17;14.10;;;-4.40;99.90;;;;;;4843601;29;20056;-79
2022/12/18 07:08:33;;;;;;;38.15;13.40;;;-4.40;99.90;;;;;;4842259;29;20093;-78
2022/12/18 07:11:04;;;;;;;28.35;12.32;;;-4.40;99.90;;;;;;4840137;29;20065;-79
2022/12/18 07:13:31;;;;;;;37.83;12.45;;;-4.40;99.90;;;;;;4845364;29;20072;-79
2022/12/18 07:16:08;;;;;;;36.05;14.70;;;-4.40;99.90;;;;;;4847344;29;20496;-79
2022/12/18 07:18:44;;;;;;;32.67;13.55;;;-4.40;99.90;;;;;;4834470;29;20050;-78
2022/12/18 07:21:14;;;;;;;38.30;13.52;;;-4.40;99.90;;;;;;4848790;29;20140;-79
2022/12/18 07:23:41;;;;;;;38.00;13.48;;;-4.40;99.90;;;;;;4848349;29;20064;-79
2022/12/18 07:26:11;;;;;;;33.28;12.98;;;-4.30;99.90;;;;;;4847378;29;20058;-78
2022/12/18 07:28:39;;;;;;;37.55;14.32;;;-4.30;99.90;;;;;;4832618;29;20117;-79
2022/12/18 07:31:17;;;;;;;32.83;13.02;;;-4.30;99.90;;;;;;4833401;29;20050;-79
2022/12/18 07:33:44;;;;;;;33.72;13.40;;;-4.30;99.90;;;;;;4832414;29;20057;-79
2022/12/18 07:36:12;;;;;;;33.20;12.27;;;-4.40;99.90;;;;;;4841799;29;20519;-79
2022/12/18 07:38:39;;;;;;;30.40;14.32;;;-4.40;99.90;;;;;;4835183;29;20058;-82
2022/12/18 07:41:11;;;;;;;31.58;12.93;;;-4.40;99.90;;;;;;4835861;29;20142;-79
2022/12/18 07:43:38;;;;;;;33.88;13.40;;;-4.50;99.90;;;;;;4843938;29;20054;-79
2022/12/18 07:46:08;;;;;;;28.08;13.00;;;-4.40;99.90;;;;;;4843884;29;20527;-79
2022/12/18 07:48:35;;;;;;;30.45;11.38;;;-4.50;99.90;;;;;;4836878;29;20406;-80
2022/12/18 07:51:04;;;;;;;31.83;14.18;;;-4.50;99.90;;;;;;4838267;29;20060;-80
2022/12/18 07:53:31;;;;;;;32.55;13.88;;;-4.50;99.90;;;;;;4850856;29;20057;-80
2022/12/18 07:56:00;;;;;;;38.90;16.42;;;-4.50;99.90;;;;;;4842197;29;20050;-81
2022/12/18 07:58:47;;;;;;;33.60;14.13;;;-4.50;99.90;;;;;;4834703;29;20050;-79
2022/12/18 08:01:14;;;;;;;32.40;13.57;;;-4.50;99.90;;;;;;4830913;29;20051;-80
2022/12/18 08:03:41;;;;;;;31.58;14.10;;;-4.40;99.90;;;;;;4838661;29;20064;-80
2022/12/18 08:06:09;;;;;;;34.40;13.45;;;-4.40;99.90;;;;;;4847383;29;20160;-80
2022/12/18 08:08:36;;;;;;;39.42;14.50;;;-4.40;99.90;;;;;;4844727;29;20054;-79
2022/12/18 08:11:03;;;;;;;36.15;14.90;;;-4.50;99.90;;;;;;4838820;29;20061;-80
2022/12/18 08:13:30;;;;;;;31.17;14.48;;;-4.50;99.90;;;;;;4839576;29;20060;-81
2022/12/18 08:16:04;;;;;;;39.38;16.05;;;-4.50;99.90;;;;;;4844203;29;20087;-80
2022/12/18 08:18:33;;;;;;;34.90;15.80;;;-4.40;99.90;;;;;;4839200;29;20505;-80
2022/12/18 08:21:11;;;;;;;40.80;14.60;;;-4.30;99.90;;;;;;4844255;29;20126;-80
2022/12/18 08:23:39;;;;;;;34.95;13.88;;;-4.30;99.90;;;;;;4841415;29;20078;-81
2022/12/18 08:26:10;;;;;;;47.60;14.63;;;-4.30;99.90;;;;;;4833341;29;20082;-81
2022/12/18 08:28:37;;;;;;;44.92;13.70;;;-4.30;99.90;;;;;;4839272;29;20050;-80
2022/12/18 08:31:04;;;;;;;41.17;13.52;;;-4.20;99.90;;;;;;4844762;29;20061;-80
2022/12/18 08:33:32;;;;;;;35.05;14.20;;;-4.20;99.90;;;;;;4840048;29;20061;-80
2022/12/18 08:36:00;;;;;;;32.42;12.98;;;-4.30;99.90;;;;;;4832808;29;20070;-79
2022/12/18 08:38:27;;;;;;;31.27;12.73;;;-4.20;99.90;;;;;;4841779;29;20523;-80
2022/12/18 08:41:00;;;;;;;29.75;11.82;;;-4.20;99.90;;;;;;4838417;29;20081;-81
2022/12/18 08:46:15;;;;;;;21.70;10.52;;;-4.20;99.90;;;;;;4837873;29;20093;-80
2022/12/18 08:48:43;;;;;;;34.97;13.07;;;-4.30;99.90;;;;;;4843401;29;20058;-82
2022/12/18 08:51:10;;;;;;;25.42;10.93;;;-4.40;99.90;;;;;;4844020;29;20788;-79
2022/12/18 08:53:39;;;;;;;26.65;11.93;;;-4.60;99.90;;;;;;4843689;29;20058;-80
2022/12/18 08:56:08;;;;;;;22.65;10.43;;;-4.60;99.90;;;;;;4837488;29;20555;-80
2022/12/18 08:58:35;;;;;;;22.60;10.13;;;-4.60;99.90;;;;;;4840240;29;20050;-79
2022/12/18 09:01:08;;;;;;;26.33;13.07;;;-4.70;99.90;;;;;;4837513;29;20065;-80
2022/12/18 09:03:36;;;;;;;20.02;10.63;;;-4.80;99.90;;;;;;4843246;29;20058;-79
2022/12/18 09:06:04;;;;;;;25.83;11.68;;;-4.70;99.90;;;;;;4839186;29;20060;-80
2022/12/18 09:08:31;;;;;;;20.40;9.77;;;-4.70;99.90;;;;;;4839727;29;20080;-79
2022/12/18 09:10:58;;;;;;;21.77;10.40;;;-4.70;99.90;;;;;;4845399;29;20050;-79
2022/12/18 09:13:26;;;;;;;25.77;11.48;;;-4.80;99.90;;;;;;4846411;29;20157;-79
2022/12/18 09:15:55;;;;;;;25.90;11.68;;;-4.80;99.90;;;;;;4839402;29;20081;-80
2022/12/18 09:18:23;;;;;;;22.10;11.55;;;-4.80;99.90;;;;;;4839426;29;20057;-80
2022/12/18 09:20:52;;;;;;;18.90;10.23;;;-4.90;99.90;;;;;;4844848;29;20058;-80
2022/12/18 09:23:19;;;;;;;23.63;11.45;;;-4.90;99.90;;;;;;4835277;29;20072;-82
2022/12/18 09:25:49;;;;;;;19.83;10.90;;;-4.90;99.90;;;;;;4831160;29;20521;-81
2022/12/18 09:28:18;;;;;;;26.63;11.35;;;-4.90;99.90;;;;;;4832473;29;20085;-81
2022/12/18 09:30:48;;;;;;;21.83;10.65;;;-4.90;99.90;;;;;;4843536;29;20054;-81
2022/12/18 09:33:16;;;;;;;22.73;11.55;;;-4.80;99.90;;;;;;4846921;29;20065;-80
2022/12/18 09:35:44;;;;;;;21.40;11.50;;;-4.70;99.90;;;;;;4838598;29;20102;-80
2022/12/18 09:38:15;;;;;;;20.80;11.18;;;-4.60;99.90;;;;;;4838189;29;20078;-81
2022/12/18 09:40:47;;;;;;;22.67;11.20;;;-4.50;99.90;;;;;;4836123;29;20062;-81
2022/12/18 09:43:26;;;;;;;25.30;13.00;;;-4.40;99.90;;;;;;4840821;29;20053;-80
2022/12/18 09:46:02;;;;;;;30.08;11.35;;;-4.40;99.90;;;;;;4833004;29;20091;-80
2022/12/18 09:48:38;;;;;;;27.38;12.57;;;-4.30;99.90;;;;;;4830020;29;20179;-81
2022/12/18 09:51:14;;;;;;;27.15;12.32;;;-4.40;99.90;;;;;;4837947;29;20082;-81
2022/12/18 09:53:47;;;;;;;23.48;10.90;;;-4.40;99.90;;;;;;4842877;29;20516;-80
2022/12/18 09:56:18;;;;;;;30.77;12.45;;;-4.30;99.90;;;;;;4845414;29;20481;-81
2022/12/18 09:58:55;;;;;;;28.25;13.23;;;-4.20;99.90;;;;;;4844537;29;20149;-82
2022/12/18 10:01:23;;;;;;;31.13;13.85;;;-4.00;99.90;;;;;;4841387;29;20148;-81
2022/12/18 10:03:51;;;;;;;30.73;14.52;;;-4.00;99.90;;;;;;4843715;29;20058;-80
2022/12/18 10:06:27;;;;;;;33.83;15.13;;;-3.90;99.90;;;;;;4840264;29;20603;-81
2022/12/18 10:09:12;;;;;;;34.08;14.45;;;-3.90;99.90;;;;;;4854399;29;20054;-80
2022/12/18 10:12:08;;;;;;;36.42;14.35;;;-3.80;99.90;;;;;;4843599;29;20056;-81
2022/12/18 10:14:37;;;;;;;36.20;15.10;;;-3.80;99.90;;;;;;4839208;29;20532;-81
2022/12/18 10:17:31;;;;;;;39.78;14.07;;;-3.90;99.90;;;;;;4847854;29;20517;-82
2022/12/18 10:20:13;;;;;;;36.60;12.98;;;-3.90;99.90;;;;;;4839402;29;20054;-81
2022/12/18 10:23:13;;;;;;;34.28;14.48;;;-4.00;99.90;;;;;;4847408;29;20062;-81
2022/12/18 10:26:06;;;;;;;29.35;13.82;;;-4.00;99.90;;;;;;4843302;29;20050;-81
2022/12/18 10:28:37;;;;;;;26.58;12.20;;;-4.00;99.90;;;;;;4831944;29;20169;-80
2022/12/18 10:31:17;;;;;;;31.52;14.77;;;-4.00;99.90;;;;;;4829961;29;20581;-81
2022/12/18 10:33:44;;;;;;;34.63;14.48;;;-3.90;99.90;;;;;;4839300;29;20058;-81
2022/12/18 10:36:11;;;;;;;32.00;14.98;;;-3.80;99.90;;;;;;4841814;29;20088;-81
2022/12/18 10:38:38;;;;;;;30.15;14.52;;;-3.80;99.90;;;;;;4844241;29;20046;-81
2022/12/18 10:41:34;;;;;;;28.17;12.98;;;-3.70;99.90;;;;;;4839345;29;20061;-80
2022/12/18 10:44:18;;;;;;;28.60;14.40;;;-3.60;99.90;;;;;;4832613;29;20057;-80
2022/12/18 10:46:48;;;;;;;29.17;13.27;;;-3.50;99.90;;;;;;4832767;29;20050;-81
2022/12/18 10:49:35;;;;;;;31.38;14.38;;;-3.50;99.90;;;;;;4831645;29;20406;-81
2022/12/18 10:52:16;;;;;;;34.70;14.32;;;-3.50;99.90;;;;;;4833050;29;20513;-81
2022/12/18 10:55:08;;;;;;;33.50;14.65;;;-3.30;99.90;;;;;;4838383;29;20107;-80
2022/12/18 10:57:41;;;;;;;27.63;13.55;;;-3.30;99.90;;;;;;4832997;29;20074;-80
2022/12/18 11:00:30;;;;;;;24.88;12.10;;;-3.40;99.90;;;;;;4842678;29;20051;-80
2022/12/18 11:02:57;;;;;;;30.55;14.02;;;-3.50;99.90;;;;;;4842238;29;20095;-80
2022/12/18 11:05:30;;;;;;;33.20;14.13;;;-3.40;99.90;;;;;;4834754;29;20072;-80
2022/12/18 11:07:58;;;;;;;34.58;14.85;;;-3.40;99.90;;;;;;4832836;29;20057;-80
2022/12/18 11:10:37;;;;;;;32.92;15.10;;;-3.30;99.90;;;;;;4838065;29;20050;-80
2022/12/18 11:13:20;;;;;;;29.55;13.35;;;-3.30;99.90;;;;;;4840943;29;20420;-80
2022/12/18 11:15:47;;;;;;;40.75;15.20;;;-3.30;99.90;;;;;;4832348;29;20057;-81
2022/12/18 11:18:34;;;;;;;32.83;15.07;;;-3.30;99.90;;;;;;4833297;29;20046;-81
2022/12/18 11:21:09;;;;;;;29.27;14.73;;;-3.30;99.90;;;;;;4839189;29;20100;-81
2022/12/18 11:23:44;;;;;;;33.35;14.95;;;-3.20;99.90;;;;;;4842565;29;20057;-79
2022/12/18 11:26:12;;;;;;;27.55;13.63;;;-3.20;99.90;;;;;;4844867;29;20058;-81
2022/12/18 11:29:06;;;;;;;27.13;13.70;;;-3.20;99.90;;;;;;4839420;29;20520;-81
2022/12/18 11:31:33;;;;;;;28.60;13.73;;;-3.10;99.90;;;;;;4847559;29;20047;-80
2022/12/18 11:34:19;;;;;;;40.45;17.65;;;-3.00;99.90;;;;;;4846793;29;20061;-80
2022/12/18 11:36:57;;;;;;;39.30;17.88;;;-2.90;99.90;;;;;;4841676;29;20052;-80
2022/12/18 11:39:39;;;;;;;43.70;19.90;;;-2.90;99.90;;;;;;4840027;29;20050;-79
2022/12/18 11:42:16;;;;;;;42.60;18.35;;;-2.90;99.90;;;;;;4841577;29;20404;-80
2022/12/18 11:44:53;;;;;;;39.95;21.80;;;-2.90;99.90;;;;;;4843369;29;20050;-80
2022/12/18 11:47:20;;;;;;;30.08;15.07;;;-2.90;99.90;;;;;;4848038;29;20516;-80
2022/12/18 11:49:51;;;;;;;30.05;14.73;;;-2.90;99.90;;;;;;4839640;29;20050;-80
2022/12/18 11:52:26;;;;;;;27.90;14.43;;;-2.90;99.90;;;;;;4838813;29;20560;-80
2022/12/18 11:54:58;;;;;;;25.70;12.90;;;-3.00;99.90;;;;;;4840018;29;20137;-79
2022/12/18 11:57:37;;;;;;;24.02;12.93;;;-3.10;99.90;;;;;;4840117;29;20128;-80
2022/12/18 12:00:14;;;;;;;23.85;13.25;;;-3.20;99.90;;;;;;4837235;29;20073;-79
2022/12/18 12:02:54;;;;;;;25.23;12.88;;;-3.10;99.90;;;;;;4840720;29;20064;-79
2022/12/18 12:05:49;;;;;;;27.92;13.50;;;-3.10;99.90;;;;;;4836916;29;20915;-79
2022/12/18 12:08:40;;;;;;;28.60;14.35;;;-3.10;99.90;;;;;;4833832;29;20207;-79
2022/12/18 12:11:27;;;;;;;30.75;15.68;;;-2.90;99.90;;;;;;4835274;29;20051;-79
2022/12/18 12:14:22;;;;;;;24.13;13.02;;;-2.90;99.90;;;;;;4855869;29;20057;-80
2022/12/18 12:16:53;;;;;;;29.92;14.15;;;-2.90;99.90;;;;;;4865571;29;20109;-81
2022/12/18 12:19:39;;;;;;;27.33;13.48;;;-2.80;99.90;;;;;;4856269;29;20113;-80
2022/12/18 12:22:22;;;;;;;26.70;13.82;;;-2.80;99.90;;;;;;4857278;29;20078;-81
2022/12/18 12:25:06;;;;;;;23.65;13.48;;;-2.80;99.90;;;;;;4851871;29;20062;-81
2022/12/18 12:27:51;;;;;;;27.50;14.13;;;-2.70;99.90;;;;;;4839410;29;20145;-80
2022/12/18 12:30:30;;;;;;;22.25;11.65;;;-2.50;99.90;;;;;;4841540;29;20061;-80
2022/12/18 12:33:14;;;;;;;22.15;12.10;;;-2.60;99.90;;;;;;4835963;29;20054;-81
2022/12/18 12:36:06;;;;;;;23.30;13.57;;;-2.60;99.90;;;;;;4835285;29;20054;-80
2022/12/18 12:38:43;;;;;;;25.95;13.27;;;-2.50;99.90;;;;;;4833372;29;20054;-81
2022/12/18 12:44:13;;;;;;;28.25;13.95;;;-2.50;99.90;;;;;;4834874;29;20070;-81
2022/12/18 12:46:42;;;;;;;27.50;13.52;;;-2.40;99.90;;;;;;4836216;29;20559;-81
2022/12/18 12:49:36;;;;;;;31.17;16.65;;;-2.40;99.90;;;;;;4840860;29;20061;-81
2022/12/18 12:52:13;;;;;;;26.98;15.73;;;-2.30;99.90;;;;;;4837172;29;20138;-80
2022/12/18 12:54:41;;;;;;;32.65;15.88;;;-2.30;99.90;;;;;;4834986;29;20424;-81
2022/12/18 12:57:15;;;;;;;30.75;15.75;;;-2.30;99.90;;;;;;4831440;29;20046;-79